<?xml version="1.0" encoding="UTF-8" standalone="no" ?>
<gpx xmlns="http://www.topografix.com/GPX/1/1" xmlns:xsi="http://www.w3.org/2001/XMLSchema-instance" xsi:schemaLocation="http://www.topografix.com/GPX/1/1 http://www.topografix.com/GPX/1/1/gpx.xsd" version="1.1" creator="VisuGPX - https://www.visugpx.com">
  <metadata>
    <name>Belle-isle-en-terre - 3.3 km - RANDO MUCO 2023</name>
  </metadata>
  <trk>
    <name><![CDATA[rando pedestre 4 km 2023-13748743]]></name>
    <extensions>
      <line xmlns="http://www.topografix.com/GPX/gpx_style/0/2">
        <color>0000FF</color>
        <width>4</width>
      </line>
    </extensions>
    <trkseg>
      <trkpt lat="48.54642" lon="-3.39662">
        <ele>90</ele>
        <time>2023-04-13T07:21:44Z</time>
      </trkpt>
      <trkpt lat="48.54643" lon="-3.39659">
        <ele>90</ele>
        <time>2023-04-13T07:21:47Z</time>
      </trkpt>
      <trkpt lat="48.54616" lon="-3.3958">
        <ele>91</ele>
        <time>2023-04-13T07:23:06Z</time>
      </trkpt>
      <trkpt lat="48.54599" lon="-3.39582">
        <ele>90</ele>
        <time>2023-04-13T07:23:28Z</time>
      </trkpt>
      <trkpt lat="48.5459" lon="-3.39583">
        <ele>90</ele>
        <time>2023-04-13T07:23:40Z</time>
      </trkpt>
      <trkpt lat="48.54584" lon="-3.39583">
        <ele>90</ele>
        <time>2023-04-13T07:23:48Z</time>
      </trkpt>
      <trkpt lat="48.54584" lon="-3.3962">
        <ele>90</ele>
        <time>2023-04-13T07:24:21Z</time>
      </trkpt>
      <trkpt lat="48.54565" lon="-3.39625">
        <ele>91</ele>
        <time>2023-04-13T07:24:47Z</time>
      </trkpt>
      <trkpt lat="48.54528" lon="-3.39621">
        <ele>93</ele>
        <time>2023-04-13T07:25:36Z</time>
      </trkpt>
      <trkpt lat="48.54528" lon="-3.396">
        <ele>93</ele>
        <time>2023-04-13T07:25:55Z</time>
      </trkpt>
      <trkpt lat="48.54525" lon="-3.39584">
        <ele>93</ele>
        <time>2023-04-13T07:26:09Z</time>
      </trkpt>
      <trkpt lat="48.54513" lon="-3.39587">
        <ele>93</ele>
        <time>2023-04-13T07:26:26Z</time>
      </trkpt>
      <trkpt lat="48.5447" lon="-3.39587">
        <ele>94</ele>
        <time>2023-04-13T07:27:23Z</time>
      </trkpt>
      <trkpt lat="48.54469" lon="-3.39544">
        <ele>94</ele>
        <time>2023-04-13T07:28:01Z</time>
      </trkpt>
      <trkpt lat="48.54472" lon="-3.39521">
        <ele>94</ele>
        <time>2023-04-13T07:28:22Z</time>
      </trkpt>
      <trkpt lat="48.54478" lon="-3.39502">
        <ele>94</ele>
        <time>2023-04-13T07:28:40Z</time>
      </trkpt>
      <trkpt lat="48.54454" lon="-3.3949">
        <ele>94</ele>
        <time>2023-04-13T07:29:14Z</time>
      </trkpt>
      <trkpt lat="48.54429" lon="-3.3949">
        <ele>94</ele>
        <time>2023-04-13T07:29:48Z</time>
      </trkpt>
      <trkpt lat="48.54429" lon="-3.39481">
        <ele>94</ele>
        <time>2023-04-13T07:29:55Z</time>
      </trkpt>
      <trkpt lat="48.54427" lon="-3.39477">
        <ele>94</ele>
        <time>2023-04-13T07:30:00Z</time>
      </trkpt>
      <trkpt lat="48.5438" lon="-3.39454">
        <ele>95</ele>
        <time>2023-04-13T07:31:06Z</time>
      </trkpt>
      <trkpt lat="48.5438" lon="-3.39454">
        <ele>95</ele>
        <time>2023-04-13T07:31:06Z</time>
      </trkpt>
      <trkpt lat="48.54372" lon="-3.39448">
        <ele>95</ele>
        <time>2023-04-13T07:31:18Z</time>
      </trkpt>
      <trkpt lat="48.54367" lon="-3.39442">
        <ele>95</ele>
        <time>2023-04-13T07:31:26Z</time>
      </trkpt>
      <trkpt lat="48.54362" lon="-3.39437">
        <ele>95</ele>
        <time>2023-04-13T07:31:34Z</time>
      </trkpt>
      <trkpt lat="48.54355" lon="-3.3945">
        <ele>95</ele>
        <time>2023-04-13T07:31:49Z</time>
      </trkpt>
      <trkpt lat="48.54344" lon="-3.39452">
        <ele>95</ele>
        <time>2023-04-13T07:32:04Z</time>
      </trkpt>
      <trkpt lat="48.54317" lon="-3.39432">
        <ele>95</ele>
        <time>2023-04-13T07:32:44Z</time>
      </trkpt>
      <trkpt lat="48.54307" lon="-3.39432">
        <ele>96</ele>
        <time>2023-04-13T07:32:57Z</time>
      </trkpt>
      <trkpt lat="48.54304" lon="-3.39444">
        <ele>96</ele>
        <time>2023-04-13T07:33:09Z</time>
      </trkpt>
      <trkpt lat="48.54302" lon="-3.39486">
        <ele>96</ele>
        <time>2023-04-13T07:33:46Z</time>
      </trkpt>
      <trkpt lat="48.54313" lon="-3.39506">
        <ele>96</ele>
        <time>2023-04-13T07:34:09Z</time>
      </trkpt>
      <trkpt lat="48.54326" lon="-3.39516">
        <ele>96</ele>
        <time>2023-04-13T07:34:28Z</time>
      </trkpt>
      <trkpt lat="48.54333" lon="-3.39517">
        <ele>95</ele>
        <time>2023-04-13T07:34:38Z</time>
      </trkpt>
      <trkpt lat="48.54327" lon="-3.3958">
        <ele>96</ele>
        <time>2023-04-13T07:35:34Z</time>
      </trkpt>
      <trkpt lat="48.54372" lon="-3.39576">
        <ele>95</ele>
        <time>2023-04-13T07:36:34Z</time>
      </trkpt>
      <trkpt lat="48.54417" lon="-3.39612">
        <ele>94</ele>
        <time>2023-04-13T07:37:42Z</time>
      </trkpt>
      <trkpt lat="48.54411" lon="-3.39697">
        <ele>93</ele>
        <time>2023-04-13T07:38:58Z</time>
      </trkpt>
      <trkpt lat="48.54411" lon="-3.39726">
        <ele>94</ele>
        <time>2023-04-13T07:39:23Z</time>
      </trkpt>
      <trkpt lat="48.54412" lon="-3.39762">
        <ele>95</ele>
        <time>2023-04-13T07:39:55Z</time>
      </trkpt>
      <trkpt lat="48.54425" lon="-3.39766">
        <ele>95</ele>
        <time>2023-04-13T07:40:13Z</time>
      </trkpt>
      <trkpt lat="48.54449" lon="-3.39784">
        <ele>95</ele>
        <time>2023-04-13T07:40:48Z</time>
      </trkpt>
      <trkpt lat="48.54548" lon="-3.39874">
        <ele>96</ele>
        <time>2023-04-13T07:43:23Z</time>
      </trkpt>
      <trkpt lat="48.54593" lon="-3.3991">
        <ele>95</ele>
        <time>2023-04-13T07:44:31Z</time>
      </trkpt>
      <trkpt lat="48.54596" lon="-3.39903">
        <ele>94</ele>
        <time>2023-04-13T07:44:38Z</time>
      </trkpt>
      <trkpt lat="48.54599" lon="-3.39903">
        <ele>94</ele>
        <time>2023-04-13T07:44:42Z</time>
      </trkpt>
      <trkpt lat="48.54623" lon="-3.39914">
        <ele>94</ele>
        <time>2023-04-13T07:45:15Z</time>
      </trkpt>
      <trkpt lat="48.54637" lon="-3.39917">
        <ele>94</ele>
        <time>2023-04-13T07:45:34Z</time>
      </trkpt>
      <trkpt lat="48.54661" lon="-3.39904">
        <ele>93</ele>
        <time>2023-04-13T07:46:08Z</time>
      </trkpt>
      <trkpt lat="48.54697" lon="-3.39881">
        <ele>94</ele>
        <time>2023-04-13T07:47:01Z</time>
      </trkpt>
      <trkpt lat="48.5472" lon="-3.39859">
        <ele>94</ele>
        <time>2023-04-13T07:47:37Z</time>
      </trkpt>
      <trkpt lat="48.5472" lon="-3.39859">
        <ele>94</ele>
        <time>2023-04-13T07:47:37Z</time>
      </trkpt>
      <trkpt lat="48.54739" lon="-3.39848">
        <ele>94</ele>
        <time>2023-04-13T07:48:04Z</time>
      </trkpt>
      <trkpt lat="48.54767" lon="-3.3984">
        <ele>94</ele>
        <time>2023-04-13T07:48:42Z</time>
      </trkpt>
      <trkpt lat="48.54784" lon="-3.39837">
        <ele>94</ele>
        <time>2023-04-13T07:49:05Z</time>
      </trkpt>
      <trkpt lat="48.54846" lon="-3.39836">
        <ele>96</ele>
        <time>2023-04-13T07:50:28Z</time>
      </trkpt>
      <trkpt lat="48.54857" lon="-3.39832">
        <ele>97</ele>
        <time>2023-04-13T07:50:43Z</time>
      </trkpt>
      <trkpt lat="48.54857" lon="-3.39832">
        <ele>97</ele>
        <time>2023-04-13T07:50:43Z</time>
      </trkpt>
      <trkpt lat="48.54871" lon="-3.39822">
        <ele>97</ele>
        <time>2023-04-13T07:51:03Z</time>
      </trkpt>
      <trkpt lat="48.54903" lon="-3.39774">
        <ele>96</ele>
        <time>2023-04-13T07:52:04Z</time>
      </trkpt>
      <trkpt lat="48.54913" lon="-3.39762">
        <ele>96</ele>
        <time>2023-04-13T07:52:21Z</time>
      </trkpt>
      <trkpt lat="48.54936" lon="-3.39746">
        <ele>96</ele>
        <time>2023-04-13T07:52:54Z</time>
      </trkpt>
      <trkpt lat="48.5496" lon="-3.39736">
        <ele>97</ele>
        <time>2023-04-13T07:53:28Z</time>
      </trkpt>
      <trkpt lat="48.54984" lon="-3.3971">
        <ele>96</ele>
        <time>2023-04-13T07:54:07Z</time>
      </trkpt>
      <trkpt lat="48.55025" lon="-3.39662">
        <ele>95</ele>
        <time>2023-04-13T07:55:16Z</time>
      </trkpt>
      <trkpt lat="48.55064" lon="-3.39659">
        <ele>98</ele>
        <time>2023-04-13T07:56:08Z</time>
      </trkpt>
      <trkpt lat="48.55126" lon="-3.39642">
        <ele>101</ele>
        <time>2023-04-13T07:57:32Z</time>
      </trkpt>
      <trkpt lat="48.55161" lon="-3.39654">
        <ele>102</ele>
        <time>2023-04-13T07:58:20Z</time>
      </trkpt>
      <trkpt lat="48.55203" lon="-3.3969">
        <ele>100</ele>
        <time>2023-04-13T07:59:25Z</time>
      </trkpt>
      <trkpt lat="48.55221" lon="-3.39714">
        <ele>99</ele>
        <time>2023-04-13T07:59:57Z</time>
      </trkpt>
      <trkpt lat="48.55276" lon="-3.39806">
        <ele>101</ele>
        <time>2023-04-13T08:01:46Z</time>
      </trkpt>
      <trkpt lat="48.55284" lon="-3.39816">
        <ele>101</ele>
        <time>2023-04-13T08:02:00Z</time>
      </trkpt>
      <trkpt lat="48.55302" lon="-3.3983">
        <ele>101</ele>
        <time>2023-04-13T08:02:27Z</time>
      </trkpt>
      <trkpt lat="48.55327" lon="-3.39844">
        <ele>100</ele>
        <time>2023-04-13T08:03:03Z</time>
      </trkpt>
      <trkpt lat="48.55346" lon="-3.39836">
        <ele>96</ele>
        <time>2023-04-13T08:03:29Z</time>
      </trkpt>
      <trkpt lat="48.55354" lon="-3.39818">
        <ele>94</ele>
        <time>2023-04-13T08:03:48Z</time>
      </trkpt>
      <trkpt lat="48.5536" lon="-3.39821">
        <ele>94</ele>
        <time>2023-04-13T08:03:57Z</time>
      </trkpt>
      <trkpt lat="48.55369" lon="-3.39787">
        <ele>92</ele>
        <time>2023-04-13T08:04:29Z</time>
      </trkpt>
      <trkpt lat="48.55381" lon="-3.39796">
        <ele>91</ele>
        <time>2023-04-13T08:04:47Z</time>
      </trkpt>
      <trkpt lat="48.55388" lon="-3.3978">
        <ele>91</ele>
        <time>2023-04-13T08:05:04Z</time>
      </trkpt>
      <trkpt lat="48.55426" lon="-3.398">
        <ele>90</ele>
        <time>2023-04-13T08:05:58Z</time>
      </trkpt>
      <trkpt lat="48.55439" lon="-3.3979">
        <ele>91</ele>
        <time>2023-04-13T08:06:17Z</time>
      </trkpt>
      <trkpt lat="48.55448" lon="-3.39768">
        <ele>94</ele>
        <time>2023-04-13T08:06:40Z</time>
      </trkpt>
      <trkpt lat="48.55449" lon="-3.39761">
        <ele>94</ele>
        <time>2023-04-13T08:06:46Z</time>
      </trkpt>
      <trkpt lat="48.55432" lon="-3.39742">
        <ele>94</ele>
        <time>2023-04-13T08:07:14Z</time>
      </trkpt>
      <trkpt lat="48.55432" lon="-3.39725">
        <ele>97</ele>
        <time>2023-04-13T08:07:29Z</time>
      </trkpt>
      <trkpt lat="48.55441" lon="-3.39701">
        <ele>103</ele>
        <time>2023-04-13T08:07:54Z</time>
      </trkpt>
      <trkpt lat="48.55404" lon="-3.39668">
        <ele>103</ele>
        <time>2023-04-13T08:08:51Z</time>
      </trkpt>
      <trkpt lat="48.55392" lon="-3.39661">
        <ele>103</ele>
        <time>2023-04-13T08:09:08Z</time>
      </trkpt>
      <trkpt lat="48.55349" lon="-3.39641">
        <ele>103</ele>
        <time>2023-04-13T08:10:08Z</time>
      </trkpt>
      <trkpt lat="48.55301" lon="-3.39627">
        <ele>103</ele>
        <time>2023-04-13T08:11:14Z</time>
      </trkpt>
      <trkpt lat="48.55262" lon="-3.39618">
        <ele>103</ele>
        <time>2023-04-13T08:12:06Z</time>
      </trkpt>
      <trkpt lat="48.55237" lon="-3.39606">
        <ele>104</ele>
        <time>2023-04-13T08:12:41Z</time>
      </trkpt>
      <trkpt lat="48.55192" lon="-3.39563">
        <ele>108</ele>
        <time>2023-04-13T08:13:52Z</time>
      </trkpt>
      <trkpt lat="48.5517" lon="-3.39545">
        <ele>109</ele>
        <time>2023-04-13T08:14:26Z</time>
      </trkpt>
      <trkpt lat="48.5516" lon="-3.39541">
        <ele>109</ele>
        <time>2023-04-13T08:14:39Z</time>
      </trkpt>
      <trkpt lat="48.5516" lon="-3.39541">
        <ele>109</ele>
        <time>2023-04-13T08:14:39Z</time>
      </trkpt>
      <trkpt lat="48.5508" lon="-3.39519">
        <ele>106</ele>
        <time>2023-04-13T08:16:28Z</time>
      </trkpt>
      <trkpt lat="48.55049" lon="-3.39529">
        <ele>103</ele>
        <time>2023-04-13T08:17:10Z</time>
      </trkpt>
      <trkpt lat="48.55021" lon="-3.39529">
        <ele>102</ele>
        <time>2023-04-13T08:17:48Z</time>
      </trkpt>
      <trkpt lat="48.54954" lon="-3.39521">
        <ele>100</ele>
        <time>2023-04-13T08:19:17Z</time>
      </trkpt>
      <trkpt lat="48.54933" lon="-3.3952">
        <ele>99</ele>
        <time>2023-04-13T08:19:45Z</time>
      </trkpt>
      <trkpt lat="48.54886" lon="-3.39525">
        <ele>97</ele>
        <time>2023-04-13T08:20:48Z</time>
      </trkpt>
      <trkpt lat="48.5487" lon="-3.39524">
        <ele>96</ele>
        <time>2023-04-13T08:21:10Z</time>
      </trkpt>
      <trkpt lat="48.54855" lon="-3.39517">
        <ele>96</ele>
        <time>2023-04-13T08:21:31Z</time>
      </trkpt>
      <trkpt lat="48.54771" lon="-3.39446">
        <ele>97</ele>
        <time>2023-04-13T08:23:39Z</time>
      </trkpt>
      <trkpt lat="48.54755" lon="-3.39434">
        <ele>97</ele>
        <time>2023-04-13T08:24:03Z</time>
      </trkpt>
      <trkpt lat="48.54755" lon="-3.39465">
        <ele>95</ele>
        <time>2023-04-13T08:24:30Z</time>
      </trkpt>
      <trkpt lat="48.54756" lon="-3.39507">
        <ele>93</ele>
        <time>2023-04-13T08:25:07Z</time>
      </trkpt>
      <trkpt lat="48.54743" lon="-3.39524">
        <ele>93</ele>
        <time>2023-04-13T08:25:30Z</time>
      </trkpt>
      <trkpt lat="48.54715" lon="-3.39537">
        <ele>93</ele>
        <time>2023-04-13T08:26:09Z</time>
      </trkpt>
      <trkpt lat="48.54699" lon="-3.39533">
        <ele>93</ele>
        <time>2023-04-13T08:26:31Z</time>
      </trkpt>
      <trkpt lat="48.54684" lon="-3.39526">
        <ele>93</ele>
        <time>2023-04-13T08:26:52Z</time>
      </trkpt>
      <trkpt lat="48.54673" lon="-3.39526">
        <ele>93</ele>
        <time>2023-04-13T08:27:07Z</time>
      </trkpt>
      <trkpt lat="48.54651" lon="-3.3953">
        <ele>92</ele>
        <time>2023-04-13T08:27:36Z</time>
      </trkpt>
      <trkpt lat="48.54644" lon="-3.39545">
        <ele>92</ele>
        <time>2023-04-13T08:27:52Z</time>
      </trkpt>
      <trkpt lat="48.54638" lon="-3.39565">
        <ele>92</ele>
        <time>2023-04-13T08:28:12Z</time>
      </trkpt>
      <trkpt lat="48.54624" lon="-3.39575">
        <ele>91</ele>
        <time>2023-04-13T08:28:32Z</time>
      </trkpt>
    </trkseg>
  </trk>
</gpx>